sensor_id;sensor_type;location;lat;lon;timestamp;temperature;humidity
8103;DHT22;4094;49.948;11.574;2023-05-07T00:00:35;17.20;59.60
8103;DHT22;4094;49.948;11.574;2023-05-07T00:03:06;17.20;59.50
8103;DHT22;4094;49.948;11.574;2023-05-07T00:05:35;17.20;60.00
8103;DHT22;4094;49.948;11.574;2023-05-07T00:08:05;17.20;59.60
8103;DHT22;4094;49.948;11.574;2023-05-07T00:10:34;17.20;59.60
8103;DHT22;4094;49.948;11.574;2023-05-07T00:13:03;17.10;59.60
8103;DHT22;4094;49.948;11.574;2023-05-07T00:15:33;17.10;59.60
8103;DHT22;4094;49.948;11.574;2023-05-07T00:18:02;17.10;59.60
8103;DHT22;4094;49.948;11.574;2023-05-07T00:20:33;17.10;59.70
8103;DHT22;4094;49.948;11.574;2023-05-07T00:23:03;17.10;59.70
8103;DHT22;4094;49.948;11.574;2023-05-07T00:25:32;17.10;59.70
8103;DHT22;4094;49.948;11.574;2023-05-07T00:28:01;17.00;59.70
8103;DHT22;4094;49.948;11.574;2023-05-07T00:30:31;17.00;59.70
8103;DHT22;4094;49.948;11.574;2023-05-07T00:33:00;17.00;59.80
8103;DHT22;4094;49.948;11.574;2023-05-07T00:35:30;17.00;59.80
8103;DHT22;4094;49.948;11.574;2023-05-07T00:38:00;17.00;59.90
8103;DHT22;4094;49.948;11.574;2023-05-07T00:40:29;16.90;59.90
8103;DHT22;4094;49.948;11.574;2023-05-07T00:42:58;16.90;59.90
8103;DHT22;4094;49.948;11.574;2023-05-07T00:45:27;16.80;60.00
8103;DHT22;4094;49.948;11.574;2023-05-07T00:47:58;16.80;60.00
8103;DHT22;4094;49.948;11.574;2023-05-07T00:50:28;16.80;60.20
8103;DHT22;4094;49.948;11.574;2023-05-07T00:53:00;16.70;60.30
8103;DHT22;4094;49.948;11.574;2023-05-07T00:55:29;16.70;60.50
8103;DHT22;4094;49.948;11.574;2023-05-07T00:57:58;16.60;60.60
8103;DHT22;4094;49.948;11.574;2023-05-07T01:00:28;16.60;60.70
8103;DHT22;4094;49.948;11.574;2023-05-07T01:02:57;16.50;60.70
8103;DHT22;4094;49.948;11.574;2023-05-07T01:05:28;16.50;60.90
8103;DHT22;4094;49.948;11.574;2023-05-07T01:08:01;16.50;61.00
8103;DHT22;4094;49.948;11.574;2023-05-07T01:10:31;16.50;61.10
8103;DHT22;4094;49.948;11.574;2023-05-07T01:13:01;16.50;61.20
8103;DHT22;4094;49.948;11.574;2023-05-07T01:15:30;16.50;61.30
8103;DHT22;4094;49.948;11.574;2023-05-07T01:18:00;16.50;61.30
8103;DHT22;4094;49.948;11.574;2023-05-07T01:20:34;16.50;61.50
8103;DHT22;4094;49.948;11.574;2023-05-07T01:23:05;16.50;61.50
8103;DHT22;4094;49.948;11.574;2023-05-07T01:25:36;16.40;61.80
8103;DHT22;4094;49.948;11.574;2023-05-07T01:28:05;16.40;61.90
8103;DHT22;4094;49.948;11.574;2023-05-07T01:30:38;16.40;61.90
8103;DHT22;4094;49.948;11.574;2023-05-07T01:33:13;16.40;62.10
8103;DHT22;4094;49.948;11.574;2023-05-07T01:35:47;16.40;62.10
8103;DHT22;4094;49.948;11.574;2023-05-07T01:38:21;16.40;61.90
8103;DHT22;4094;49.948;11.574;2023-05-07T01:40:50;16.40;61.90
8103;DHT22;4094;49.948;11.574;2023-05-07T01:43:20;16.40;61.90
8103;DHT22;4094;49.948;11.574;2023-05-07T01:45:49;16.40;61.90
8103;DHT22;4094;49.948;11.574;2023-05-07T01:48:18;16.40;61.90
8103;DHT22;4094;49.948;11.574;2023-05-07T01:50:48;16.40;61.90
8103;DHT22;4094;49.948;11.574;2023-05-07T01:53:19;16.40;62.10
8103;DHT22;4094;49.948;11.574;2023-05-07T01:55:48;16.40;62.20
8103;DHT22;4094;49.948;11.574;2023-05-07T01:58:17;16.30;62.20
8103;DHT22;4094;49.948;11.574;2023-05-07T02:00:46;16.30;62.30
8103;DHT22;4094;49.948;11.574;2023-05-07T02:03:16;16.30;62.10
8103;DHT22;4094;49.948;11.574;2023-05-07T02:05:53;16.30;62.10
8103;DHT22;4094;49.948;11.574;2023-05-07T02:08:31;16.30;62.10
8103;DHT22;4094;49.948;11.574;2023-05-07T02:11:00;16.30;62.10
8103;DHT22;4094;49.948;11.574;2023-05-07T02:13:33;16.30;62.10
8103;DHT22;4094;49.948;11.574;2023-05-07T02:16:04;16.20;62.20
8103;DHT22;4094;49.948;11.574;2023-05-07T02:18:34;16.20;62.20
8103;DHT22;4094;49.948;11.574;2023-05-07T02:21:03;16.20;62.40
8103;DHT22;4094;49.948;11.574;2023-05-07T02:23:34;16.20;62.40
8103;DHT22;4094;49.948;11.574;2023-05-07T02:26:04;16.20;62.60
8103;DHT22;4094;49.948;11.574;2023-05-07T02:28:33;16.10;62.50
8103;DHT22;4094;49.948;11.574;2023-05-07T02:31:05;16.10;62.70
8103;DHT22;4094;49.948;11.574;2023-05-07T02:33:35;16.10;62.80
8103;DHT22;4094;49.948;11.574;2023-05-07T02:36:08;16.10;63.00
8103;DHT22;4094;49.948;11.574;2023-05-07T02:39:01;16.00;63.10
8103;DHT22;4094;49.948;11.574;2023-05-07T02:41:31;16.10;63.30
8103;DHT22;4094;49.948;11.574;2023-05-07T02:44:00;16.10;63.40
8103;DHT22;4094;49.948;11.574;2023-05-07T02:46:30;16.00;63.40
8103;DHT22;4094;49.948;11.574;2023-05-07T02:49:05;16.00;63.40
8103;DHT22;4094;49.948;11.574;2023-05-07T02:51:34;16.10;63.60
8103;DHT22;4094;49.948;11.574;2023-05-07T02:54:10;16.00;63.40
8103;DHT22;4094;49.948;11.574;2023-05-07T02:56:39;16.00;63.40
8103;DHT22;4094;49.948;11.574;2023-05-07T02:59:08;16.00;63.40
8103;DHT22;4094;49.948;11.574;2023-05-07T03:01:40;16.00;63.40
8103;DHT22;4094;49.948;11.574;2023-05-07T03:04:13;16.00;63.50
8103;DHT22;4094;49.948;11.574;2023-05-07T03:06:42;16.00;63.60
8103;DHT22;4094;49.948;11.574;2023-05-07T03:09:12;16.00;63.70
8103;DHT22;4094;49.948;11.574;2023-05-07T03:11:42;15.90;63.80
8103;DHT22;4094;49.948;11.574;2023-05-07T03:14:11;15.90;63.90
8103;DHT22;4094;49.948;11.574;2023-05-07T03:16:40;15.90;64.10
8103;DHT22;4094;49.948;11.574;2023-05-07T03:19:10;15.90;64.20
8103;DHT22;4094;49.948;11.574;2023-05-07T03:21:39;15.90;64.10
8103;DHT22;4094;49.948;11.574;2023-05-07T03:24:08;16.00;64.20
8103;DHT22;4094;49.948;11.574;2023-05-07T03:26:39;15.90;64.00
8103;DHT22;4094;49.948;11.574;2023-05-07T03:29:08;15.90;63.90
8103;DHT22;4094;49.948;11.574;2023-05-07T03:31:37;15.90;63.90
8103;DHT22;4094;49.948;11.574;2023-05-07T03:34:06;15.90;63.80
8103;DHT22;4094;49.948;11.574;2023-05-07T03:36:35;15.90;63.90
8103;DHT22;4094;49.948;11.574;2023-05-07T03:39:08;15.80;63.90
8103;DHT22;4094;49.948;11.574;2023-05-07T03:41:42;15.80;64.10
8103;DHT22;4094;49.948;11.574;2023-05-07T03:44:11;15.80;64.10
8103;DHT22;4094;49.948;11.574;2023-05-07T03:46:41;15.80;64.20
8103;DHT22;4094;49.948;11.574;2023-05-07T03:49:12;15.80;64.30
8103;DHT22;4094;49.948;11.574;2023-05-07T03:51:41;15.70;64.40
8103;DHT22;4094;49.948;11.574;2023-05-07T03:54:11;15.70;64.50
8103;DHT22;4094;49.948;11.574;2023-05-07T03:56:45;15.70;64.50
8103;DHT22;4094;49.948;11.574;2023-05-07T03:59:15;15.70;64.50
8103;DHT22;4094;49.948;11.574;2023-05-07T04:01:48;15.70;64.50
8103;DHT22;4094;49.948;11.574;2023-05-07T04:04:20;15.70;64.50
8103;DHT22;4094;49.948;11.574;2023-05-07T04:06:50;15.60;64.80
8103;DHT22;4094;49.948;11.574;2023-05-07T04:09:19;15.60;64.80
8103;DHT22;4094;49.948;11.574;2023-05-07T04:11:50;15.60;64.80
8103;DHT22;4094;49.948;11.574;2023-05-07T04:14:20;15.60;64.80
8103;DHT22;4094;49.948;11.574;2023-05-07T04:16:49;15.60;64.80
8103;DHT22;4094;49.948;11.574;2023-05-07T04:19:19;15.60;64.80
8103;DHT22;4094;49.948;11.574;2023-05-07T04:21:52;15.60;64.70
8103;DHT22;4094;49.948;11.574;2023-05-07T04:24:21;15.60;64.80
8103;DHT22;4094;49.948;11.574;2023-05-07T04:26:52;15.60;64.90
8103;DHT22;4094;49.948;11.574;2023-05-07T04:29:23;15.60;65.00
8103;DHT22;4094;49.948;11.574;2023-05-07T04:31:52;15.60;65.00
8103;DHT22;4094;49.948;11.574;2023-05-07T04:34:23;15.60;64.90
8103;DHT22;4094;49.948;11.574;2023-05-07T04:36:53;15.60;64.90
8103;DHT22;4094;49.948;11.574;2023-05-07T04:39:22;15.60;65.00
8103;DHT22;4094;49.948;11.574;2023-05-07T04:41:53;15.60;65.00
8103;DHT22;4094;49.948;11.574;2023-05-07T04:44:23;15.60;65.10
8103;DHT22;4094;49.948;11.574;2023-05-07T04:46:52;15.50;65.00
8103;DHT22;4094;49.948;11.574;2023-05-07T04:49:22;15.50;65.00
8103;DHT22;4094;49.948;11.574;2023-05-07T04:51:53;15.50;65.10
8103;DHT22;4094;49.948;11.574;2023-05-07T04:54:24;15.60;65.40
8103;DHT22;4094;49.948;11.574;2023-05-07T04:56:56;15.60;65.50
8103;DHT22;4094;49.948;11.574;2023-05-07T04:59:25;15.60;65.50
8103;DHT22;4094;49.948;11.574;2023-05-07T05:01:54;15.60;65.50
8103;DHT22;4094;49.948;11.574;2023-05-07T05:04:25;15.60;65.30
8103;DHT22;4094;49.948;11.574;2023-05-07T05:06:54;15.60;65.20
8103;DHT22;4094;49.948;11.574;2023-05-07T05:09:23;15.60;65.00
8103;DHT22;4094;49.948;11.574;2023-05-07T05:11:53;15.60;65.00
8103;DHT22;4094;49.948;11.574;2023-05-07T05:14:24;15.70;65.20
8103;DHT22;4094;49.948;11.574;2023-05-07T05:16:53;15.70;65.40
8103;DHT22;4094;49.948;11.574;2023-05-07T05:19:22;15.70;65.40
8103;DHT22;4094;49.948;11.574;2023-05-07T05:21:51;15.70;65.50
8103;DHT22;4094;49.948;11.574;2023-05-07T05:24:20;15.70;65.40
8103;DHT22;4094;49.948;11.574;2023-05-07T05:26:51;15.80;65.40
8103;DHT22;4094;49.948;11.574;2023-05-07T05:29:23;15.90;65.40
8103;DHT22;4094;49.948;11.574;2023-05-07T05:31:52;15.90;65.40
8103;DHT22;4094;49.948;11.574;2023-05-07T05:34:22;15.90;65.50
8103;DHT22;4094;49.948;11.574;2023-05-07T05:36:52;16.00;65.50
8103;DHT22;4094;49.948;11.574;2023-05-07T05:39:21;16.10;65.30
8103;DHT22;4094;49.948;11.574;2023-05-07T05:41:51;16.10;65.10
8103;DHT22;4094;49.948;11.574;2023-05-07T05:44:21;16.20;65.20
8103;DHT22;4094;49.948;11.574;2023-05-07T05:46:52;16.20;64.60
8103;DHT22;4094;49.948;11.574;2023-05-07T05:49:22;16.30;64.40
8103;DHT22;4094;49.948;11.574;2023-05-07T05:51:52;16.30;64.40
8103;DHT22;4094;49.948;11.574;2023-05-07T05:54:21;16.40;64.50
8103;DHT22;4094;49.948;11.574;2023-05-07T05:56:51;16.40;64.30
8103;DHT22;4094;49.948;11.574;2023-05-07T05:59:20;16.50;64.10
8103;DHT22;4094;49.948;11.574;2023-05-07T06:01:51;16.50;63.90
8103;DHT22;4094;49.948;11.574;2023-05-07T06:04:20;16.60;63.60
8103;DHT22;4094;49.948;11.574;2023-05-07T06:06:50;16.60;63.50
8103;DHT22;4094;49.948;11.574;2023-05-07T06:09:20;16.70;63.30
8103;DHT22;4094;49.948;11.574;2023-05-07T06:11:51;16.80;63.50
8103;DHT22;4094;49.948;11.574;2023-05-07T06:14:20;16.80;63.40
8103;DHT22;4094;49.948;11.574;2023-05-07T06:16:50;16.90;63.30
8103;DHT22;4094;49.948;11.574;2023-05-07T06:19:20;16.90;62.70
8103;DHT22;4094;49.948;11.574;2023-05-07T06:21:54;17.00;62.80
8103;DHT22;4094;49.948;11.574;2023-05-07T06:24:24;17.10;62.60
8103;DHT22;4094;49.948;11.574;2023-05-07T06:26:53;17.10;61.90
8103;DHT22;4094;49.948;11.574;2023-05-07T06:29:23;17.10;62.40
8103;DHT22;4094;49.948;11.574;2023-05-07T06:31:53;17.20;62.30
8103;DHT22;4094;49.948;11.574;2023-05-07T06:34:25;17.30;62.60
8103;DHT22;4094;49.948;11.574;2023-05-07T06:36:54;17.40;62.40
8103;DHT22;4094;49.948;11.574;2023-05-07T06:39:37;17.50;62.30
8103;DHT22;4094;49.948;11.574;2023-05-07T06:42:06;17.60;61.80
8103;DHT22;4094;49.948;11.574;2023-05-07T06:44:40;17.70;61.80
8103;DHT22;4094;49.948;11.574;2023-05-07T06:47:12;17.80;61.70
8103;DHT22;4094;49.948;11.574;2023-05-07T06:49:47;17.90;61.10
8103;DHT22;4094;49.948;11.574;2023-05-07T06:52:18;18.00;61.00
8103;DHT22;4094;49.948;11.574;2023-05-07T06:54:49;18.10;60.50
8103;DHT22;4094;49.948;11.574;2023-05-07T06:57:21;18.20;60.60
8103;DHT22;4094;49.948;11.574;2023-05-07T06:59:50;18.30;60.30
8103;DHT22;4094;49.948;11.574;2023-05-07T07:02:20;18.40;60.50
8103;DHT22;4094;49.948;11.574;2023-05-07T07:04:51;18.40;60.40
8103;DHT22;4094;49.948;11.574;2023-05-07T07:07:20;18.50;60.50
8103;DHT22;4094;49.948;11.574;2023-05-07T07:09:50;18.60;60.40
8103;DHT22;4094;49.948;11.574;2023-05-07T07:12:20;18.70;59.60
8103;DHT22;4094;49.948;11.574;2023-05-07T07:14:50;18.80;59.70
8103;DHT22;4094;49.948;11.574;2023-05-07T07:17:19;18.90;59.10
8103;DHT22;4094;49.948;11.574;2023-05-07T07:19:48;18.90;59.10
8103;DHT22;4094;49.948;11.574;2023-05-07T07:22:19;19.00;59.50
8103;DHT22;4094;49.948;11.574;2023-05-07T07:24:48;19.10;59.30
8103;DHT22;4094;49.948;11.574;2023-05-07T07:27:19;19.10;59.40
8103;DHT22;4094;49.948;11.574;2023-05-07T07:29:48;19.20;59.10
8103;DHT22;4094;49.948;11.574;2023-05-07T07:32:17;19.20;59.10
8103;DHT22;4094;49.948;11.574;2023-05-07T07:34:46;19.30;59.00
8103;DHT22;4094;49.948;11.574;2023-05-07T07:37:15;19.30;58.70
8103;DHT22;4094;49.948;11.574;2023-05-07T07:39:46;19.40;58.80
8103;DHT22;4094;49.948;11.574;2023-05-07T07:42:15;19.40;58.30
8103;DHT22;4094;49.948;11.574;2023-05-07T07:44:44;19.50;58.70
8103;DHT22;4094;49.948;11.574;2023-05-07T07:47:15;19.50;58.70
8103;DHT22;4094;49.948;11.574;2023-05-07T07:49:47;19.50;58.80
8103;DHT22;4094;49.948;11.574;2023-05-07T07:52:18;19.60;59.00
8103;DHT22;4094;49.948;11.574;2023-05-07T07:54:49;19.60;58.90
8103;DHT22;4094;49.948;11.574;2023-05-07T07:57:19;19.70;58.50
8103;DHT22;4094;49.948;11.574;2023-05-07T07:59:49;19.80;58.70
8103;DHT22;4094;49.948;11.574;2023-05-07T08:02:20;19.90;58.80
8103;DHT22;4094;49.948;11.574;2023-05-07T08:04:50;19.90;58.60
8103;DHT22;4094;49.948;11.574;2023-05-07T08:07:20;20.00;58.60
8103;DHT22;4094;49.948;11.574;2023-05-07T08:09:52;20.10;58.50
8103;DHT22;4094;49.948;11.574;2023-05-07T08:12:24;20.10;58.10
8103;DHT22;4094;49.948;11.574;2023-05-07T08:14:54;20.10;57.70
8103;DHT22;4094;49.948;11.574;2023-05-07T08:17:24;20.20;57.80
8103;DHT22;4094;49.948;11.574;2023-05-07T08:19:53;20.20;57.50
8103;DHT22;4094;49.948;11.574;2023-05-07T08:22:22;20.20;57.80
8103;DHT22;4094;49.948;11.574;2023-05-07T08:24:53;20.20;57.50
8103;DHT22;4094;49.948;11.574;2023-05-07T08:27:23;20.20;57.50
8103;DHT22;4094;49.948;11.574;2023-05-07T08:29:53;20.20;57.40
8103;DHT22;4094;49.948;11.574;2023-05-07T08:32:23;20.20;57.70
8103;DHT22;4094;49.948;11.574;2023-05-07T08:34:52;20.30;57.90
8103;DHT22;4094;49.948;11.574;2023-05-07T08:37:22;20.30;57.80
8103;DHT22;4094;49.948;11.574;2023-05-07T08:39:53;20.40;57.80
8103;DHT22;4094;49.948;11.574;2023-05-07T08:42:27;20.50;57.60
8103;DHT22;4094;49.948;11.574;2023-05-07T08:44:59;20.50;57.70
8103;DHT22;4094;49.948;11.574;2023-05-07T08:47:34;20.60;57.80
8103;DHT22;4094;49.948;11.574;2023-05-07T08:50:08;20.70;57.60
8103;DHT22;4094;49.948;11.574;2023-05-07T08:52:39;20.70;57.50
8103;DHT22;4094;49.948;11.574;2023-05-07T08:55:10;20.80;56.80
8103;DHT22;4094;49.948;11.574;2023-05-07T08:57:40;20.80;56.70
8103;DHT22;4094;49.948;11.574;2023-05-07T09:00:12;20.80;56.90
8103;DHT22;4094;49.948;11.574;2023-05-07T09:02:42;20.80;57.00
8103;DHT22;4094;49.948;11.574;2023-05-07T09:05:12;20.90;56.60
8103;DHT22;4094;49.948;11.574;2023-05-07T09:07:42;20.90;56.80
8103;DHT22;4094;49.948;11.574;2023-05-07T09:10:15;20.90;56.80
8103;DHT22;4094;49.948;11.574;2023-05-07T09:12:47;21.00;56.30
8103;DHT22;4094;49.948;11.574;2023-05-07T09:15:18;21.10;56.80
8103;DHT22;4094;49.948;11.574;2023-05-07T09:17:48;21.10;57.00
8103;DHT22;4094;49.948;11.574;2023-05-07T09:20:17;21.20;56.20
8103;DHT22;4094;49.948;11.574;2023-05-07T09:22:49;21.30;55.70
8103;DHT22;4094;49.948;11.574;2023-05-07T09:25:27;21.40;55.50
8103;DHT22;4094;49.948;11.574;2023-05-07T09:30:28;21.50;55.20
8103;DHT22;4094;49.948;11.574;2023-05-07T09:33:01;21.60;55.00
8103;DHT22;4094;49.948;11.574;2023-05-07T09:35:31;21.60;55.00
8103;DHT22;4094;49.948;11.574;2023-05-07T09:38:08;21.70;54.60
8103;DHT22;4094;49.948;11.574;2023-05-07T09:40:39;21.70;54.70
8103;DHT22;4094;49.948;11.574;2023-05-07T09:43:13;21.80;54.40
8103;DHT22;4094;49.948;11.574;2023-05-07T09:45:48;21.80;54.40
8103;DHT22;4094;49.948;11.574;2023-05-07T09:48:22;21.90;54.10
8103;DHT22;4094;49.948;11.574;2023-05-07T09:50:55;21.90;54.00
8103;DHT22;4094;49.948;11.574;2023-05-07T09:53:30;21.90;53.80
8103;DHT22;4094;49.948;11.574;2023-05-07T09:56:04;21.90;54.20
8103;DHT22;4094;49.948;11.574;2023-05-07T09:58:37;21.90;54.10
8103;DHT22;4094;49.948;11.574;2023-05-07T10:01:07;22.00;54.30
8103;DHT22;4094;49.948;11.574;2023-05-07T10:03:37;22.00;53.80
8103;DHT22;4094;49.948;11.574;2023-05-07T10:06:10;22.00;53.60
8103;DHT22;4094;49.948;11.574;2023-05-07T10:08:40;22.00;53.40
8103;DHT22;4094;49.948;11.574;2023-05-07T10:11:11;22.10;53.50
8103;DHT22;4094;49.948;11.574;2023-05-07T10:13:43;22.10;53.50
8103;DHT22;4094;49.948;11.574;2023-05-07T10:16:13;22.10;53.20
8103;DHT22;4094;49.948;11.574;2023-05-07T10:18:47;22.20;53.60
8103;DHT22;4094;49.948;11.574;2023-05-07T10:21:22;22.20;53.10
8103;DHT22;4094;49.948;11.574;2023-05-07T10:23:59;22.20;53.20
8103;DHT22;4094;49.948;11.574;2023-05-07T10:26:34;22.30;53.00
8103;DHT22;4094;49.948;11.574;2023-05-07T10:29:12;22.40;52.70
8103;DHT22;4094;49.948;11.574;2023-05-07T10:31:54;22.40;52.90
8103;DHT22;4094;49.948;11.574;2023-05-07T10:34:28;22.40;53.20
8103;DHT22;4094;49.948;11.574;2023-05-07T10:36:59;22.50;53.00
8103;DHT22;4094;49.948;11.574;2023-05-07T10:39:30;22.50;52.50
8103;DHT22;4094;49.948;11.574;2023-05-07T10:42:09;22.50;52.10
8103;DHT22;4094;49.948;11.574;2023-05-07T10:44:41;22.50;51.80
8103;DHT22;4094;49.948;11.574;2023-05-07T10:47:16;22.60;52.50
8103;DHT22;4094;49.948;11.574;2023-05-07T10:50:20;22.60;52.20
8103;DHT22;4094;49.948;11.574;2023-05-07T10:53:22;22.60;52.20
8103;DHT22;4094;49.948;11.574;2023-05-07T10:56:26;22.70;52.30
8103;DHT22;4094;49.948;11.574;2023-05-07T10:59:35;22.80;52.20
8103;DHT22;4094;49.948;11.574;2023-05-07T11:02:22;22.90;51.80
8103;DHT22;4094;49.948;11.574;2023-05-07T11:05:18;22.90;52.10
8103;DHT22;4094;49.948;11.574;2023-05-07T11:07:57;22.90;51.40
8103;DHT22;4094;49.948;11.574;2023-05-07T11:10:55;23.00;51.60
8103;DHT22;4094;49.948;11.574;2023-05-07T11:13:43;23.00;50.40
8103;DHT22;4094;49.948;11.574;2023-05-07T11:16:33;23.00;49.40
8103;DHT22;4094;49.948;11.574;2023-05-07T11:19:17;23.10;49.50
8103;DHT22;4094;49.948;11.574;2023-05-07T11:21:49;23.10;49.70
8103;DHT22;4094;49.948;11.574;2023-05-07T11:24:39;23.10;49.80
8103;DHT22;4094;49.948;11.574;2023-05-07T11:27:09;23.10;49.30
8103;DHT22;4094;49.948;11.574;2023-05-07T11:29:38;23.00;49.80
8103;DHT22;4094;49.948;11.574;2023-05-07T11:32:13;23.00;50.10
8103;DHT22;4094;49.948;11.574;2023-05-07T11:34:51;23.10;50.40
8103;DHT22;4094;49.948;11.574;2023-05-07T11:37:22;23.10;50.30
8103;DHT22;4094;49.948;11.574;2023-05-07T11:40:04;23.20;49.20
8103;DHT22;4094;49.948;11.574;2023-05-07T11:42:36;23.30;49.70
8103;DHT22;4094;49.948;11.574;2023-05-07T11:45:07;23.40;49.80
8103;DHT22;4094;49.948;11.574;2023-05-07T11:47:38;23.40;49.00
8103;DHT22;4094;49.948;11.574;2023-05-07T11:50:11;23.50;48.40
8103;DHT22;4094;49.948;11.574;2023-05-07T11:52:50;23.60;48.90
8103;DHT22;4094;49.948;11.574;2023-05-07T11:55:20;23.70;49.00
8103;DHT22;4094;49.948;11.574;2023-05-07T11:57:50;23.70;48.80
8103;DHT22;4094;49.948;11.574;2023-05-07T12:00:19;23.90;48.80
8103;DHT22;4094;49.948;11.574;2023-05-07T12:02:50;24.00;47.90
8103;DHT22;4094;49.948;11.574;2023-05-07T12:05:19;24.10;47.90
8103;DHT22;4094;49.948;11.574;2023-05-07T12:07:56;24.20;47.60
8103;DHT22;4094;49.948;11.574;2023-05-07T12:10:25;24.30;47.50
8103;DHT22;4094;49.948;11.574;2023-05-07T12:12:54;24.30;46.90
8103;DHT22;4094;49.948;11.574;2023-05-07T12:15:23;24.40;46.60
8103;DHT22;4094;49.948;11.574;2023-05-07T12:17:54;24.50;46.20
8103;DHT22;4094;49.948;11.574;2023-05-07T12:20:24;24.60;46.00
8103;DHT22;4094;49.948;11.574;2023-05-07T12:22:54;24.60;45.20
8103;DHT22;4094;49.948;11.574;2023-05-07T12:25:23;24.60;45.70
8103;DHT22;4094;49.948;11.574;2023-05-07T12:27:53;24.60;44.80
8103;DHT22;4094;49.948;11.574;2023-05-07T12:30:23;24.70;45.60
8103;DHT22;4094;49.948;11.574;2023-05-07T12:32:54;24.70;44.10
8103;DHT22;4094;49.948;11.574;2023-05-07T12:35:27;24.70;44.70
8103;DHT22;4094;49.948;11.574;2023-05-07T12:37:57;24.70;44.60
8103;DHT22;4094;49.948;11.574;2023-05-07T12:40:36;24.70;45.30
8103;DHT22;4094;49.948;11.574;2023-05-07T12:43:05;24.80;44.30
8103;DHT22;4094;49.948;11.574;2023-05-07T12:45:38;24.80;44.10
8103;DHT22;4094;49.948;11.574;2023-05-07T12:48:10;24.80;45.10
8103;DHT22;4094;49.948;11.574;2023-05-07T12:50:40;24.90;44.90
8103;DHT22;4094;49.948;11.574;2023-05-07T12:53:11;25.00;44.30
8103;DHT22;4094;49.948;11.574;2023-05-07T12:55:42;25.00;43.00
8103;DHT22;4094;49.948;11.574;2023-05-07T12:58:16;25.00;44.00
8103;DHT22;4094;49.948;11.574;2023-05-07T13:00:47;25.00;44.10
8103;DHT22;4094;49.948;11.574;2023-05-07T13:03:26;25.00;43.30
8103;DHT22;4094;49.948;11.574;2023-05-07T13:08:28;25.00;43.10
8103;DHT22;4094;49.948;11.574;2023-05-07T13:10:58;25.00;43.70
8103;DHT22;4094;49.948;11.574;2023-05-07T13:13:31;25.10;44.40
8103;DHT22;4094;49.948;11.574;2023-05-07T13:16:01;25.20;44.20
8103;DHT22;4094;49.948;11.574;2023-05-07T13:18:33;25.20;44.10
8103;DHT22;4094;49.948;11.574;2023-05-07T13:21:03;25.20;43.00
8103;DHT22;4094;49.948;11.574;2023-05-07T13:23:33;25.30;43.20
8103;DHT22;4094;49.948;11.574;2023-05-07T13:26:03;25.20;43.20
8103;DHT22;4094;49.948;11.574;2023-05-07T13:28:52;25.20;43.70
8103;DHT22;4094;49.948;11.574;2023-05-07T13:31:21;25.10;42.70
8103;DHT22;4094;49.948;11.574;2023-05-07T13:33:51;25.10;42.70
8103;DHT22;4094;49.948;11.574;2023-05-07T13:36:21;25.10;42.90
8103;DHT22;4094;49.948;11.574;2023-05-07T13:38:50;25.10;43.10
8103;DHT22;4094;49.948;11.574;2023-05-07T13:41:19;25.20;42.90
8103;DHT22;4094;49.948;11.574;2023-05-07T13:43:48;25.20;43.50
8103;DHT22;4094;49.948;11.574;2023-05-07T13:46:18;25.30;43.80
8103;DHT22;4094;49.948;11.574;2023-05-07T13:48:47;25.30;44.10
8103;DHT22;4094;49.948;11.574;2023-05-07T13:51:18;25.40;42.80
8103;DHT22;4094;49.948;11.574;2023-05-07T13:53:47;25.40;42.80
8103;DHT22;4094;49.948;11.574;2023-05-07T13:56:16;25.40;42.40
8103;DHT22;4094;49.948;11.574;2023-05-07T13:58:46;25.40;42.60
8103;DHT22;4094;49.948;11.574;2023-05-07T14:01:27;25.40;42.10
8103;DHT22;4094;49.948;11.574;2023-05-07T14:03:57;25.40;42.20
8103;DHT22;4094;49.948;11.574;2023-05-07T14:06:28;25.30;42.20
8103;DHT22;4094;49.948;11.574;2023-05-07T14:08:57;25.30;42.50
8103;DHT22;4094;49.948;11.574;2023-05-07T14:11:28;25.30;43.10
8103;DHT22;4094;49.948;11.574;2023-05-07T14:13:57;25.30;42.50
8103;DHT22;4094;49.948;11.574;2023-05-07T14:16:27;25.30;43.00
8103;DHT22;4094;49.948;11.574;2023-05-07T14:18:56;25.30;43.20
8103;DHT22;4094;49.948;11.574;2023-05-07T14:21:27;25.40;43.30
8103;DHT22;4094;49.948;11.574;2023-05-07T14:23:57;25.30;42.90
8103;DHT22;4094;49.948;11.574;2023-05-07T14:26:28;25.30;43.10
8103;DHT22;4094;49.948;11.574;2023-05-07T14:28:58;25.30;43.30
8103;DHT22;4094;49.948;11.574;2023-05-07T14:31:29;25.30;43.10
8103;DHT22;4094;49.948;11.574;2023-05-07T14:33:59;25.20;42.70
8103;DHT22;4094;49.948;11.574;2023-05-07T14:36:30;25.10;42.70
8103;DHT22;4094;49.948;11.574;2023-05-07T14:38:59;25.00;43.00
8103;DHT22;4094;49.948;11.574;2023-05-07T14:41:29;24.90;43.20
8103;DHT22;4094;49.948;11.574;2023-05-07T14:43:59;24.80;43.10
8103;DHT22;4094;49.948;11.574;2023-05-07T14:46:29;24.80;43.00
8103;DHT22;4094;49.948;11.574;2023-05-07T14:48:59;24.70;43.10
8103;DHT22;4094;49.948;11.574;2023-05-07T14:51:30;24.60;43.20
8103;DHT22;4094;49.948;11.574;2023-05-07T14:54:00;24.60;43.50
8103;DHT22;4094;49.948;11.574;2023-05-07T14:56:30;24.50;43.70
8103;DHT22;4094;49.948;11.574;2023-05-07T14:58:59;24.50;43.80
8103;DHT22;4094;49.948;11.574;2023-05-07T15:01:29;24.40;43.80
8103;DHT22;4094;49.948;11.574;2023-05-07T15:03:59;24.40;43.70
8103;DHT22;4094;49.948;11.574;2023-05-07T15:06:31;24.30;44.00
8103;DHT22;4094;49.948;11.574;2023-05-07T15:09:01;24.20;43.80
8103;DHT22;4094;49.948;11.574;2023-05-07T15:11:31;24.20;43.90
8103;DHT22;4094;49.948;11.574;2023-05-07T15:14:00;24.20;44.10
8103;DHT22;4094;49.948;11.574;2023-05-07T15:16:30;24.10;44.10
8103;DHT22;4094;49.948;11.574;2023-05-07T15:19:00;24.10;44.00
8103;DHT22;4094;49.948;11.574;2023-05-07T15:21:31;24.10;44.10
8103;DHT22;4094;49.948;11.574;2023-05-07T15:24:03;24.10;44.20
8103;DHT22;4094;49.948;11.574;2023-05-07T15:26:32;24.00;44.20
8103;DHT22;4094;49.948;11.574;2023-05-07T15:29:01;24.00;44.30
8103;DHT22;4094;49.948;11.574;2023-05-07T15:31:36;24.00;44.60
8103;DHT22;4094;49.948;11.574;2023-05-07T15:34:07;24.10;44.50
8103;DHT22;4094;49.948;11.574;2023-05-07T15:36:38;24.10;44.60
8103;DHT22;4094;49.948;11.574;2023-05-07T15:39:07;24.10;44.50
8103;DHT22;4094;49.948;11.574;2023-05-07T15:41:38;24.00;44.50
8103;DHT22;4094;49.948;11.574;2023-05-07T15:44:07;24.10;44.50
8103;DHT22;4094;49.948;11.574;2023-05-07T15:46:37;24.10;44.50
8103;DHT22;4094;49.948;11.574;2023-05-07T15:49:06;24.10;44.70
8103;DHT22;4094;49.948;11.574;2023-05-07T15:51:38;24.00;44.60
8103;DHT22;4094;49.948;11.574;2023-05-07T15:54:07;24.00;44.60
8103;DHT22;4094;49.948;11.574;2023-05-07T15:56:37;24.00;44.50
8103;DHT22;4094;49.948;11.574;2023-05-07T15:59:07;23.90;44.60
8103;DHT22;4094;49.948;11.574;2023-05-07T16:01:37;23.90;44.70
8103;DHT22;4094;49.948;11.574;2023-05-07T16:04:08;23.90;44.80
8103;DHT22;4094;49.948;11.574;2023-05-07T16:06:39;23.90;44.80
8103;DHT22;4094;49.948;11.574;2023-05-07T16:09:08;23.90;44.80
8103;DHT22;4094;49.948;11.574;2023-05-07T16:11:38;23.80;44.80
8103;DHT22;4094;49.948;11.574;2023-05-07T16:14:07;23.70;44.90
8103;DHT22;4094;49.948;11.574;2023-05-07T16:16:37;23.70;45.00